Pine Galaxy — C6TT5 — position and weather

sailwx.info

Track history (hours):
 
Tides and Currents Weather Stations Pressure Air Temp Water Temp Dewpoint Dewpoint Depression Visibility Wind Speed Wind Dir Waves Ship Positions

Pine Galaxy

Last reported at 2016-May-02 01:27 UTC. Time now 2016-May-02 03:37 UTC.
Position N 37°32' W 127°37'.

Length 147 m; draft 9.7 m.

Type: Tanker. MMSI: 311772000.

Date/timePositionNaut miles runAvg speedWind from/ knotsBaromVisibWave heightAir tempDewpointWater temp
2016-May-02 01:27N 37°32' W 127°37'1411.2
2016-May-02 00:10N 37°32' W 127°56'711.0
2016-May-01 23:33N 37°33' W 128°04'15611.1
2016-May-01 09:26N 38°34' W 131°07'1213.0
2016-May-01 08:31N 38°39' W 131°21'3015.2
2016-May-01 06:31N 38°49' W 131°58'4212.3
2016-May-01 03:07N 39°04' W 132°48'813.3
2016-May-01 02:33N 39°06' W 132°57'1413.8
2016-May-01 01:33N 39°11' W 133°14'  
Track history (hours):
 
Tides and Currents Weather Stations Pressure Air Temp Water Temp Dewpoint Dewpoint Depression Visibility Wind Speed Wind Dir Waves Ship Positions

Pine Galaxy

Last reported at 2016-May-02 01:27 UTC. Time now 2016-May-02 03:37 UTC.
Position N 37°32' W 127°37'.

Length 147 m; draft 9.7 m.

Type: Tanker. MMSI: 311772000.

Date/timePositionNaut miles runAvg speedWind from/ knotsBaromVisibWave heightAir tempDewpointWater temp
2016-May-02 01:27N 37°32' W 127°37'1411.2
2016-May-02 00:10N 37°32' W 127°56'711.0
2016-May-01 23:33N 37°33' W 128°04'15611.1
2016-May-01 09:26N 38°34' W 131°07'1213.0
2016-May-01 08:31N 38°39' W 131°21'3015.2
2016-May-01 06:31N 38°49' W 131°58'4212.3
2016-May-01 03:07N 39°04' W 132°48'813.3
2016-May-01 02:33N 39°06' W 132°57'1413.8
2016-May-01 01:33N 39°11' W 133°14'  

Dump ship's entire track history